createdAt,value
2022-11-12T00:03:11.295Z,45.70
2022-11-12T00:09:29.086Z,45.50
2022-11-12T00:15:43.336Z,45.70
2022-11-12T00:21:57.447Z,46.00
2022-11-12T00:28:14.609Z,46.40
2022-11-12T00:34:28.827Z,46.10
2022-11-12T00:40:43.073Z,45.40
2022-11-12T00:47:03.498Z,45.60
2022-11-12T00:53:17.512Z,45.90
2022-11-12T00:59:32.492Z,46.10
2022-11-12T01:05:48.340Z,46.10
2022-11-12T01:12:04.243Z,46.10
2022-11-12T01:18:20.384Z,46.30
2022-11-12T01:24:34.765Z,46.30
2022-11-12T01:30:47.256Z,46.50
2022-11-12T01:37:01.044Z,46.50
2022-11-12T01:43:16.118Z,47.30
2022-11-12T01:49:34.468Z,47.10
2022-11-12T01:55:50.613Z,47.90
2022-11-12T02:02:08.240Z,47.50
2022-11-12T02:08:23.122Z,47.30
2022-11-12T02:14:41.534Z,47.40
2022-11-12T02:20:56.641Z,47.60
2022-11-12T02:27:13.979Z,47.30
2022-11-12T02:33:27.817Z,47.40
2022-11-12T02:39:39.594Z,47.10
2022-11-12T02:45:54.809Z,47.40
2022-11-12T02:52:13.084Z,47.50
2022-11-12T02:58:31.583Z,47.60
2022-11-12T03:04:49.252Z,47.50
2022-11-12T03:11:01.574Z,47.20
2022-11-12T03:17:20.857Z,47.50
2022-11-12T03:23:39.419Z,47.50
2022-11-12T03:29:57.937Z,47.50
2022-11-12T03:36:16.289Z,47.60
2022-11-12T03:42:30.972Z,47.30
2022-11-12T03:48:43.792Z,47.50
2022-11-12T03:54:59.717Z,47.60
2022-11-12T04:01:16.942Z,47.60
2022-11-12T04:07:47.456Z,47.10
2022-11-12T04:14:03.876Z,47.00
2022-11-12T04:20:36.442Z,47.30
2022-11-12T04:26:52.002Z,47.10
2022-11-12T04:33:07.709Z,47.00
2022-11-12T04:39:23.168Z,46.60
2022-11-12T04:45:38.822Z,46.70
2022-11-12T04:52:11.007Z,46.80
2022-11-12T04:58:26.908Z,46.90
2022-11-12T05:04:40.240Z,46.80
2022-11-12T05:10:53.550Z,46.20
2022-11-12T05:17:08.001Z,46.40
2022-11-12T05:23:21.125Z,46.60
2022-11-12T05:29:36.923Z,46.80
2022-11-12T05:35:52.641Z,46.50
2022-11-12T05:42:13.454Z,46.10
2022-11-12T05:48:28.399Z,46.30
2022-11-12T05:54:42.982Z,46.50
2022-11-12T06:00:57.890Z,46.50
2022-11-12T06:07:11.454Z,46.20
2022-11-12T06:13:27.483Z,45.90
2022-11-12T06:19:39.535Z,46.60
2022-11-12T06:25:52.910Z,46.10
2022-11-12T06:32:06.461Z,46.10
2022-11-12T06:38:19.900Z,45.80
2022-11-12T06:44:34.570Z,45.70
2022-11-12T06:50:52.974Z,45.90
2022-11-12T06:57:11.049Z,45.90
2022-11-12T07:03:29.702Z,45.90
2022-11-12T07:09:45.277Z,45.60
2022-11-12T07:15:58.474Z,45.70
2022-11-12T07:22:14.366Z,45.80
2022-11-12T07:28:30.450Z,45.90
2022-11-12T07:34:45.944Z,45.90
2022-11-12T07:41:03.120Z,45.60
2022-11-12T07:47:16.661Z,45.60
2022-11-12T07:53:32.251Z,45.60
2022-11-12T07:59:50.133Z,45.70
2022-11-12T08:06:04.889Z,45.60
2022-11-12T08:12:21.189Z,45.50
2022-11-12T08:18:32.805Z,45.50
2022-11-12T08:24:48.649Z,45.60
2022-11-12T08:31:01.260Z,45.50
2022-11-12T08:37:16.977Z,45.40
2022-11-12T08:43:33.311Z,45.50
2022-11-12T08:49:51.262Z,45.50
2022-11-12T08:56:01.298Z,45.50
2022-11-12T09:02:19.095Z,45.60
2022-11-12T09:08:32.680Z,45.40
2022-11-12T09:14:48.342Z,45.40
2022-11-12T09:20:59.412Z,45.40
2022-11-12T09:27:13.634Z,45.40
2022-11-12T09:33:30.915Z,45.50
2022-11-12T09:39:47.490Z,45.40
2022-11-12T09:46:26.794Z,45.40
2022-11-12T09:52:22.849Z,45.40
2022-11-12T09:58:37.380Z,45.40
2022-11-12T10:05:12.611Z,45.30
2022-11-12T10:12:07.724Z,45.20
2022-11-12T10:18:19.275Z,45.30
2022-11-12T10:24:34.855Z,45.30
2022-11-12T10:30:51.552Z,45.30
2022-11-12T10:37:10.673Z,45.30
2022-11-12T10:43:33.597Z,45.10
2022-11-12T10:49:49.248Z,45.70
2022-11-12T10:56:06.546Z,45.10
2022-11-12T11:02:28.470Z,45.20
2022-11-12T11:08:45.940Z,45.10
2022-11-12T11:15:11.768Z,45.10
2022-11-12T11:21:37.872Z,45.10
2022-11-12T11:27:55.104Z,45.20
2022-11-12T11:34:13.634Z,45.00
2022-11-12T11:40:31.948Z,44.90
2022-11-12T11:46:54.627Z,44.90
2022-11-12T11:53:30.237Z,45.00
2022-11-12T11:59:49.493Z,45.10
2022-11-12T12:06:24.063Z,45.10
2022-11-12T12:12:42.508Z,45.10
2022-11-12T12:18:58.476Z,44.90
2022-11-12T12:25:15.678Z,45.00
2022-11-12T12:31:25.665Z,44.90
2022-11-12T12:37:40.772Z,44.90
2022-11-12T12:43:55.564Z,45.10
2022-11-12T12:50:12.227Z,44.70
2022-11-12T13:03:08.425Z,44.60
2022-11-12T13:09:32.167Z,44.40
2022-11-12T13:15:52.770Z,44.40
2022-11-12T13:22:47.285Z,44.30
2022-11-12T13:29:29.244Z,44.80
2022-11-12T13:35:43.370Z,43.30
2022-11-12T13:42:22.313Z,42.30
2022-11-12T13:48:41.871Z,42.60
2022-11-12T13:54:56.633Z,43.60
2022-11-12T14:01:13.822Z,44.10
2022-11-12T14:07:32.889Z,44.40
2022-11-12T14:13:52.857Z,44.60
2022-11-12T14:20:31.573Z,44.90
2022-11-12T14:26:47.006Z,45.10
2022-11-12T14:33:03.187Z,45.80
2022-11-12T14:39:20.172Z,45.70
2022-11-12T14:45:35.450Z,45.50
2022-11-12T14:51:54.425Z,44.80
2022-11-12T14:58:10.237Z,44.20
2022-11-12T15:04:28.813Z,44.10
2022-11-12T15:10:44.473Z,43.70
2022-11-12T15:17:03.699Z,44.60
2022-11-12T15:23:38.769Z,44.20
2022-11-12T15:29:59.056Z,43.70
2022-11-12T15:36:25.717Z,43.60
2022-11-12T15:42:37.419Z,43.60
2022-11-12T15:48:55.479Z,43.70
2022-11-12T15:55:05.390Z,43.80
2022-11-12T16:01:18.508Z,43.80
2022-11-12T16:07:36.351Z,43.80
2022-11-12T16:13:52.443Z,43.50
2022-11-12T16:20:08.346Z,43.60
2022-11-12T16:26:23.475Z,44.00
2022-11-12T16:32:42.626Z,43.80
2022-11-12T16:39:01.153Z,44.00
2022-11-12T16:45:15.160Z,44.20
2022-11-12T16:51:27.801Z,44.10
2022-11-12T16:57:43.583Z,44.30
2022-11-12T17:04:03.049Z,44.90
2022-11-12T17:10:24.039Z,44.30
2022-11-12T17:16:38.247Z,44.10
2022-11-12T17:22:53.121Z,44.00
2022-11-12T17:29:10.797Z,44.20
2022-11-12T17:35:23.572Z,43.80
2022-11-12T17:41:38.581Z,43.30
2022-11-12T17:47:55.828Z,43.40
2022-11-12T17:54:10.980Z,43.70
2022-11-12T18:00:29.428Z,44.00
2022-11-12T18:06:40.699Z,44.30
2022-11-12T18:12:53.527Z,44.60
2022-11-12T18:19:07.333Z,43.20
2022-11-12T18:25:19.845Z,43.80
2022-11-12T18:31:35.034Z,44.10
2022-11-12T18:37:53.568Z,44.50
2022-11-12T18:44:13.549Z,44.80
2022-11-12T18:50:27.863Z,45.10
2022-11-12T18:56:46.014Z,45.20
2022-11-12T19:03:04.843Z,45.30
2022-11-12T19:09:19.873Z,44.90
2022-11-12T19:15:31.182Z,44.80
2022-11-12T19:21:45.824Z,44.60
2022-11-12T19:28:01.654Z,44.50
2022-11-12T19:34:15.599Z,44.30
2022-11-12T19:40:29.941Z,43.90
2022-11-12T19:46:41.069Z,44.60
2022-11-12T19:52:59.175Z,43.60
2022-11-12T19:59:11.477Z,43.20
2022-11-12T20:05:27.144Z,43.10
2022-11-12T20:11:42.690Z,42.90
2022-11-12T20:17:55.010Z,42.90
2022-11-12T20:24:14.047Z,43.00
2022-11-12T20:30:27.824Z,43.00
2022-11-12T20:36:44.776Z,43.00
2022-11-12T20:42:55.838Z,42.80
2022-11-12T20:49:12.223Z,42.80
2022-11-12T20:55:30.634Z,42.70
2022-11-12T21:01:48.867Z,42.80
2022-11-12T21:08:03.665Z,42.70
2022-11-12T21:14:15.563Z,42.60
2022-11-12T21:20:32.094Z,42.40
2022-11-12T21:26:50.179Z,42.30
2022-11-12T21:33:07.709Z,42.70
2022-11-12T21:39:23.422Z,42.40
2022-11-12T21:45:39.224Z,41.70
2022-11-12T21:51:50.784Z,41.60
2022-11-12T21:58:04.849Z,41.90
2022-11-12T22:04:19.357Z,42.00
2022-11-12T22:10:32.535Z,42.10
2022-11-12T22:16:46.013Z,42.00
2022-11-12T22:22:59.327Z,41.80
2022-11-12T22:29:15.209Z,41.90
2022-11-12T22:35:28.600Z,42.20
2022-11-12T22:41:40.892Z,42.40
2022-11-12T22:47:57.622Z,41.70
2022-11-12T22:54:16.940Z,41.60
2022-11-12T23:00:37.371Z,41.80
2022-11-12T23:06:55.340Z,42.00
2022-11-12T23:13:11.061Z,42.30
2022-11-12T23:19:29.057Z,42.40
2022-11-12T23:25:44.362Z,41.90
2022-11-12T23:31:56.536Z,41.50
2022-11-12T23:38:13.049Z,41.70
2022-11-12T23:44:28.641Z,42.10
2022-11-12T23:50:45.309Z,42.20
2022-11-12T23:56:57.458Z,42.20
